Terminal Aerodrome Forecast
Issued by NWS

Home | Current Version | Previous Version | Text Only | Print | Product List | Glossary On
Versions: 1 2 3 4 5 6 7 8 9 10 11 12 13 14 15 16 17 18 19 20 21 22 23 24
000
FTUS45 KBYZ 290601 AAA
TAFLVM
TAF AMD
KLVM 290601Z 2906/3006 28008KT P6SM SCT080 BKN120
      TEMPO 2906/2908 22011G20KT P6SM -SHRA OVC100
     FM291500 31010KT P6SM VCSH BKN090
     FM292000 33015KT P6SM VCTS SCT070CB BKN090
     FM300200 VRB06KT P6SM SCT120=

USA.gov is the U.S. government's official web portal to all federal, state and local government web resources and services.